createdAt,value
2019-02-22T00:01:15.288Z,100.00
2019-02-22T00:03:42.198Z,100.00
2019-02-22T00:06:09.080Z,100.00
2019-02-22T00:08:35.961Z,100.00
2019-02-22T00:11:02.872Z,100.00
2019-02-22T00:13:29.736Z,100.00
2019-02-22T00:15:56.652Z,100.00
2019-02-22T00:18:23.528Z,100.00
2019-02-22T00:20:50.456Z,100.00
2019-02-22T00:23:17.315Z,100.00
2019-02-22T00:25:44.259Z,100.00
2019-02-22T00:28:11.139Z,100.00
2019-02-22T00:30:38.066Z,100.00
2019-02-22T00:33:04.996Z,100.00
2019-02-22T00:35:32.069Z,100.00
2019-02-22T00:37:59.346Z,100.00
2019-02-22T00:40:26.277Z,100.00
2019-02-22T00:42:53.165Z,100.00
2019-02-22T00:45:20.098Z,100.00
2019-02-22T00:47:46.974Z,100.00
2019-02-22T00:50:13.891Z,100.00
2019-02-22T00:52:40.775Z,100.00
2019-02-22T00:55:07.733Z,100.00
2019-02-22T00:57:34.609Z,100.00
2019-02-22T01:00:01.559Z,100.00
2019-02-22T01:02:28.455Z,100.00
2019-02-22T01:04:55.462Z,100.00
2019-02-22T01:07:23.202Z,100.00
2019-02-22T01:09:50.141Z,100.00
2019-02-22T01:12:17.024Z,100.00
2019-02-22T01:14:43.974Z,100.00
2019-02-22T01:17:10.853Z,100.00
2019-02-22T01:19:37.754Z,100.00
2019-02-22T01:22:05.101Z,100.00
2019-02-22T01:24:31.988Z,100.00
2019-02-22T01:26:58.927Z,100.00
2019-02-22T01:29:25.921Z,100.00
2019-02-22T01:31:52.858Z,100.00
2019-02-22T01:34:19.744Z,100.00
2019-02-22T01:36:46.686Z,100.00
2019-02-22T01:39:13.590Z,100.00
2019-02-22T01:41:40.506Z,100.00
2019-02-22T01:44:17.828Z,100.00
2019-02-22T01:46:44.790Z,100.00
2019-02-22T01:49:11.658Z,100.00
2019-02-22T01:51:38.603Z,100.00
2019-02-22T01:54:05.614Z,100.00
2019-02-22T01:56:32.542Z,100.00
2019-02-22T01:58:59.439Z,100.00
2019-02-22T02:01:26.342Z,100.00
2019-02-22T02:03:53.224Z,100.00
2019-02-22T02:06:20.168Z,100.00
2019-02-22T02:08:47.049Z,100.00
2019-02-22T02:11:13.969Z,100.00
2019-02-22T02:13:40.863Z,100.00
2019-02-22T02:16:07.784Z,100.00
2019-02-22T02:18:34.691Z,100.00
2019-02-22T02:21:01.570Z,100.00
2019-02-22T02:23:28.489Z,100.00
2019-02-22T02:25:55.391Z,100.00
2019-02-22T02:28:22.305Z,100.00
2019-02-22T02:30:49.207Z,100.00
2019-02-22T02:33:16.134Z,100.00
2019-02-22T02:35:43.019Z,100.00
2019-02-22T02:38:09.916Z,100.00
2019-02-22T02:40:36.822Z,100.00
2019-02-22T02:43:03.786Z,100.00
2019-02-22T02:45:30.685Z,100.00
2019-02-22T02:47:57.579Z,100.00
2019-02-22T02:50:24.442Z,100.00
2019-02-22T02:52:51.353Z,100.00
2019-02-22T02:55:29.178Z,100.00
2019-02-22T02:57:56.135Z,100.00
2019-02-22T03:00:23.012Z,100.00
2019-02-22T03:02:49.920Z,100.00
2019-02-22T03:05:16.796Z,100.00
2019-02-22T03:07:45.366Z,100.00
2019-02-22T03:10:12.260Z,100.00
2019-02-22T03:12:39.172Z,100.00
2019-02-22T03:15:07.225Z,100.00
2019-02-22T03:17:34.244Z,100.00
2019-02-22T03:20:01.148Z,100.00
2019-02-22T03:22:28.051Z,100.00
2019-02-22T03:24:54.950Z,100.00
2019-02-22T03:27:21.871Z,100.00
2019-02-22T03:29:48.748Z,100.00
2019-02-22T03:32:15.664Z,100.00
2019-02-22T03:34:42.576Z,100.00
2019-02-22T03:37:09.519Z,100.00
2019-02-22T03:39:36.413Z,100.00
2019-02-22T03:42:03.312Z,100.00
2019-02-22T03:44:30.246Z,100.00
2019-02-22T03:46:57.124Z,100.00
2019-02-22T03:49:24.051Z,100.00
2019-02-22T03:51:50.933Z,100.00
2019-02-22T03:54:17.867Z,100.00
2019-02-22T03:56:44.807Z,100.00
2019-02-22T03:59:11.759Z,100.00
2019-02-22T04:01:38.690Z,100.00
2019-02-22T04:04:05.638Z,100.00
2019-02-22T04:06:32.564Z,100.00
2019-02-22T04:08:59.526Z,100.00
2019-02-22T04:11:26.457Z,100.00
2019-02-22T04:13:53.417Z,100.00
2019-02-22T04:16:20.344Z,100.00
2019-02-22T04:18:47.327Z,100.00
2019-02-22T04:21:14.218Z,100.00
2019-02-22T04:23:41.162Z,100.00
2019-02-22T04:26:08.073Z,100.00
2019-02-22T04:28:35.015Z,100.00
2019-02-22T04:31:01.921Z,100.00
2019-02-22T04:33:28.852Z,100.00
2019-02-22T04:35:55.750Z,100.00
2019-02-22T04:38:22.680Z,100.00
2019-02-22T04:40:49.592Z,100.00
2019-02-22T04:43:16.539Z,100.00
2019-02-22T04:45:43.507Z,100.00
2019-02-22T04:48:10.469Z,100.00
2019-02-22T04:50:37.387Z,100.00
2019-02-22T04:53:04.421Z,100.00
2019-02-22T04:55:31.375Z,100.00
2019-02-22T04:57:58.295Z,100.00
2019-02-22T05:00:25.239Z,100.00
2019-02-22T05:02:52.157Z,100.00
2019-02-22T05:05:19.099Z,100.00
2019-02-22T05:07:46.094Z,100.00
2019-02-22T05:10:13.032Z,100.00
2019-02-22T05:12:39.949Z,100.00
2019-02-22T05:15:12.594Z,100.00
2019-02-22T05:17:35.905Z,100.00
2019-02-22T05:20:03.317Z,100.00
2019-02-22T05:22:30.223Z,100.00
2019-02-22T05:24:57.192Z,100.00
2019-02-22T05:27:24.136Z,100.00
2019-02-22T05:29:51.083Z,100.00
2019-02-22T05:32:18.036Z,100.00
2019-02-22T05:34:44.971Z,100.00
2019-02-22T05:37:11.879Z,100.00
2019-02-22T05:39:38.821Z,100.00
2019-02-22T05:42:05.728Z,100.00
2019-02-22T05:44:32.675Z,100.00
2019-02-22T05:47:00.605Z,100.00
2019-02-22T05:49:27.811Z,100.00
2019-02-22T05:51:54.729Z,100.00
2019-02-22T05:54:21.669Z,100.00
2019-02-22T05:56:48.613Z,100.00
2019-02-22T05:59:15.555Z,100.00
2019-02-22T06:01:42.483Z,100.00
2019-02-22T06:04:09.413Z,100.00
2019-02-22T06:06:36.329Z,100.00
2019-02-22T06:09:04.468Z,100.00
2019-02-22T06:11:31.414Z,100.00
2019-02-22T06:13:58.318Z,100.00
2019-02-22T06:16:25.261Z,100.00
2019-02-22T06:18:52.230Z,100.00
2019-02-22T06:21:19.176Z,100.00
2019-02-22T06:23:46.109Z,100.00
2019-02-22T06:26:13.040Z,100.00
2019-02-22T06:28:39.958Z,100.00
2019-02-22T06:31:06.907Z,100.00
2019-02-22T06:33:33.832Z,100.00
2019-02-22T06:36:00.795Z,100.00
2019-02-22T06:38:28.212Z,100.00
2019-02-22T06:40:55.214Z,100.00
2019-02-22T06:43:22.137Z,100.00
2019-02-22T06:45:49.074Z,100.00
2019-02-22T06:48:15.995Z,100.00
2019-02-22T06:50:43.094Z,100.00
2019-02-22T06:53:11.211Z,100.00
2019-02-22T06:55:38.160Z,100.00
2019-02-22T06:58:05.066Z,100.00
2019-02-22T07:00:31.996Z,100.00
2019-02-22T07:02:59.002Z,100.00
2019-02-22T07:05:25.959Z,100.00
2019-02-22T07:07:52.882Z,100.00
2019-02-22T07:10:19.841Z,100.00
2019-02-22T07:12:59.879Z,100.00
2019-02-22T07:15:26.819Z,100.00
2019-02-22T07:17:53.729Z,100.00
2019-02-22T07:20:20.709Z,100.00
2019-02-22T07:22:47.631Z,100.00
2019-02-22T07:25:14.633Z,100.00
2019-02-22T07:27:41.542Z,100.00
2019-02-22T07:30:08.868Z,100.00
2019-02-22T07:32:35.861Z,100.00
2019-02-22T07:35:02.897Z,100.00
2019-02-22T07:37:29.975Z,100.00
2019-02-22T07:39:56.905Z,100.00
2019-02-22T07:42:23.846Z,100.00
2019-02-22T07:44:50.789Z,100.00
2019-02-22T07:47:17.758Z,100.00
2019-02-22T07:49:44.684Z,100.00
2019-02-22T07:52:11.632Z,100.00
2019-02-22T07:54:38.531Z,100.00
2019-02-22T07:57:05.474Z,100.00
2019-02-22T07:59:32.382Z,100.00
2019-02-22T08:01:59.366Z,100.00
2019-02-22T08:04:26.283Z,100.00
2019-02-22T08:06:53.243Z,100.00
2019-02-22T08:09:20.150Z,100.00
2019-02-22T08:11:47.909Z,100.00
2019-02-22T08:14:15.158Z,100.00
2019-02-22T08:16:42.123Z,100.00
2019-02-22T08:19:11.343Z,100.00
2019-02-22T08:21:38.421Z,100.00
2019-02-22T08:24:05.363Z,100.00
2019-02-22T08:26:32.317Z,100.00
2019-02-22T08:28:59.405Z,100.00
2019-02-22T08:31:26.371Z,100.00
2019-02-22T08:33:53.284Z,100.00
2019-02-22T08:36:20.323Z,100.00
2019-02-22T08:38:47.248Z,100.00
2019-02-22T08:41:14.179Z,100.00
2019-02-22T08:43:41.176Z,100.00
2019-02-22T08:46:08.117Z,100.00
2019-02-22T08:48:35.065Z,100.00
2019-02-22T08:51:02.009Z,100.00
2019-02-22T08:53:28.943Z,100.00
2019-02-22T08:55:55.860Z,100.00
2019-02-22T08:58:22.816Z,100.00
2019-02-22T09:00:49.726Z,100.00
2019-02-22T09:03:16.668Z,100.00
2019-02-22T09:05:43.583Z,100.00
2019-02-22T09:08:10.525Z,100.00
2019-02-22T09:10:37.473Z,100.00
2019-02-22T09:13:04.424Z,100.00
2019-02-22T09:15:31.330Z,100.00
2019-02-22T09:17:58.308Z,100.00
2019-02-22T09:20:25.310Z,100.00
2019-02-22T09:22:52.238Z,100.00
2019-02-22T09:25:19.173Z,100.00
2019-02-22T09:27:46.135Z,100.00
2019-02-22T09:30:14.866Z,100.00
2019-02-22T09:32:41.866Z,100.00
2019-02-22T09:35:09.196Z,100.00
2019-02-22T09:37:36.269Z,100.00
2019-02-22T09:40:03.804Z,100.00
2019-02-22T09:42:30.907Z,100.00
2019-02-22T09:44:57.845Z,100.00
2019-02-22T09:47:24.775Z,100.00
2019-02-22T09:49:51.687Z,100.00
2019-02-22T09:52:18.640Z,100.00
2019-02-22T09:54:45.586Z,100.00
2019-02-22T09:57:12.623Z,100.00
2019-02-22T09:59:39.533Z,100.00
2019-02-22T10:02:06.509Z,100.00
2019-02-22T10:04:33.455Z,100.00
2019-02-22T10:07:00.406Z,100.00
2019-02-22T10:09:27.381Z,100.00
2019-02-22T10:11:54.300Z,100.00
2019-02-22T10:14:21.319Z,100.00
2019-02-22T10:16:48.187Z,100.00
2019-02-22T10:19:15.132Z,100.00
2019-02-22T10:21:42.058Z,100.00
2019-02-22T10:24:09.031Z,100.00
2019-02-22T10:26:35.995Z,100.00
2019-02-22T10:29:02.949Z,100.00
2019-02-22T10:31:29.876Z,100.00
2019-02-22T10:33:56.858Z,100.00
2019-02-22T10:36:23.834Z,100.00
2019-02-22T10:38:50.805Z,100.00
2019-02-22T10:41:17.745Z,100.00
2019-02-22T10:43:44.721Z,100.00
2019-02-22T10:46:11.639Z,100.00
2019-02-22T10:48:38.586Z,100.00
2019-02-22T10:51:05.509Z,100.00
2019-02-22T10:53:32.439Z,100.00
2019-02-22T10:55:59.351Z,100.00
2019-02-22T10:58:26.292Z,100.00
2019-02-22T11:00:53.217Z,100.00
2019-02-22T11:03:20.209Z,100.00
2019-02-22T11:05:47.121Z,100.00
2019-02-22T11:08:14.275Z,100.00
2019-02-22T11:10:41.268Z,100.00
2019-02-22T11:13:08.234Z,100.00
2019-02-22T11:15:35.311Z,100.00
2019-02-22T11:18:02.227Z,100.00
2019-02-22T11:20:29.234Z,100.00
2019-02-22T11:22:56.137Z,100.00
2019-02-22T11:25:23.155Z,100.00
2019-02-22T11:27:50.067Z,100.00
2019-02-22T11:30:17.023Z,100.00
2019-02-22T11:32:43.931Z,100.00
2019-02-22T11:35:10.922Z,100.00
2019-02-22T11:37:37.893Z,100.00
2019-02-22T11:40:04.988Z,100.00
2019-02-22T11:42:31.907Z,100.00
2019-02-22T11:44:58.852Z,100.00
2019-02-22T11:47:25.788Z,100.00
2019-02-22T11:49:52.743Z,100.00
2019-02-22T11:52:19.651Z,100.00
2019-02-22T11:54:46.625Z,100.00
2019-02-22T11:57:13.714Z,100.00
2019-02-22T11:59:40.681Z,100.00
2019-02-22T12:02:07.703Z,100.00
2019-02-22T12:04:34.784Z,100.00
2019-02-22T12:07:01.694Z,100.00
2019-02-22T12:09:28.679Z,100.00
2019-02-22T12:11:55.587Z,100.00
2019-02-22T12:14:22.555Z,100.00
2019-02-22T12:16:49.500Z,100.00
2019-02-22T12:19:16.483Z,100.00
2019-02-22T12:21:43.400Z,100.00
2019-02-22T12:24:10.340Z,100.00
2019-02-22T12:26:37.291Z,100.00
2019-02-22T12:29:04.240Z,100.00
2019-02-22T12:31:31.181Z,100.00
2019-02-22T12:33:58.143Z,100.00
2019-02-22T12:36:25.083Z,100.00
2019-02-22T12:38:52.001Z,100.00
2019-02-22T12:41:18.947Z,100.00
2019-02-22T12:43:45.861Z,100.00
2019-02-22T12:46:12.836Z,100.00
2019-02-22T12:48:39.755Z,100.00
2019-02-22T12:51:06.776Z,100.00
2019-02-22T12:53:33.734Z,100.00
2019-02-22T12:56:00.704Z,100.00
2019-02-22T12:58:27.645Z,100.00
2019-02-22T13:00:54.598Z,100.00
2019-02-22T13:03:21.521Z,100.00
2019-02-22T13:05:48.490Z,100.00
2019-02-22T13:08:15.416Z,100.00
2019-02-22T13:10:42.379Z,100.00
2019-02-22T13:13:09.306Z,100.00
2019-02-22T13:15:36.302Z,100.00
2019-02-22T13:18:03.265Z,100.00
2019-02-22T13:20:30.380Z,100.00
2019-02-22T13:22:57.295Z,100.00
2019-02-22T13:25:24.276Z,100.00
2019-02-22T13:27:51.198Z,100.00
2019-02-22T13:30:18.121Z,100.00
2019-02-22T13:32:45.077Z,100.00
2019-02-22T13:35:12.007Z,100.00
2019-02-22T13:37:38.946Z,100.00
2019-02-22T13:40:07.496Z,100.00
2019-02-22T13:42:34.582Z,100.00
2019-02-22T13:45:01.492Z,100.00
2019-02-22T13:47:28.436Z,100.00
2019-02-22T13:49:55.347Z,100.00
2019-02-22T13:52:22.313Z,100.00
2019-02-22T13:54:49.213Z,100.00
2019-02-22T13:57:16.168Z,100.00
2019-02-22T13:59:43.091Z,100.00
2019-02-22T14:02:10.037Z,100.00
2019-02-22T14:04:36.952Z,100.00
2019-02-22T14:07:03.895Z,100.00
2019-02-22T14:09:30.805Z,100.00
2019-02-22T14:11:57.848Z,100.00
2019-02-22T14:14:24.748Z,100.00
2019-02-22T14:16:51.706Z,100.00
2019-02-22T14:19:18.710Z,100.00
2019-02-22T14:21:45.686Z,100.00
2019-02-22T14:24:12.561Z,100.00
2019-02-22T14:26:39.529Z,100.00
2019-02-22T14:29:06.472Z,100.00
2019-02-22T14:31:33.426Z,100.00
2019-02-22T14:34:00.331Z,100.00
2019-02-22T14:36:29.079Z,100.00
2019-02-22T14:38:56.254Z,100.00
2019-02-22T14:41:23.190Z,99.49
2019-02-22T14:43:50.146Z,98.03
2019-02-22T14:46:25.560Z,98.06
2019-02-22T14:48:45.907Z,97.53
2019-02-22T14:51:15.117Z,97.02
2019-02-22T14:53:41.668Z,98.28
2019-02-22T14:56:08.582Z,98.31
2019-02-22T14:58:35.531Z,98.76
2019-02-22T15:01:02.456Z,97.41
2019-02-22T15:03:29.380Z,97.92
2019-02-22T15:05:56.357Z,96.18
2019-02-22T15:08:23.305Z,96.18
2019-02-22T15:10:50.279Z,95.14
2019-02-22T15:13:17.232Z,95.18
2019-02-22T15:16:08.215Z,94.90
2019-02-22T15:18:35.153Z,95.42
2019-02-22T15:21:02.183Z,95.67
2019-02-22T15:23:29.143Z,94.86
2019-02-22T15:25:56.116Z,94.99
2019-02-22T15:28:23.067Z,95.20
2019-02-22T15:30:50.008Z,95.07
2019-02-22T15:33:16.937Z,95.05
2019-02-22T15:35:43.858Z,94.82
2019-02-22T15:38:10.792Z,95.48
2019-02-22T15:40:39.376Z,95.75
2019-02-22T15:43:06.707Z,96.23
2019-02-22T15:45:33.616Z,96.20
2019-02-22T15:48:00.576Z,96.15
2019-02-22T15:50:27.541Z,96.64
2019-02-22T15:52:54.691Z,96.73
2019-02-22T15:55:21.613Z,97.44
2019-02-22T15:57:48.574Z,97.15
2019-02-22T16:00:18.896Z,95.61
2019-02-22T16:02:45.830Z,94.38
2019-02-22T16:05:32.411Z,95.06
2019-02-22T16:07:59.546Z,95.34
2019-02-22T16:10:26.474Z,95.13
2019-02-22T16:12:53.435Z,95.33
2019-02-22T16:15:20.408Z,94.90
2019-02-22T16:17:47.331Z,94.26
2019-02-22T16:20:14.371Z,94.38
2019-02-22T16:22:41.314Z,93.91
2019-02-22T16:25:18.608Z,93.11
2019-02-22T16:27:37.144Z,93.94
2019-02-22T16:30:07.344Z,94.40
2019-02-22T16:32:34.253Z,94.74
2019-02-22T16:35:01.199Z,93.69
2019-02-22T16:37:28.133Z,94.20
2019-02-22T16:39:55.079Z,94.94
2019-02-22T16:42:21.998Z,95.71
2019-02-22T16:44:48.951Z,95.03
2019-02-22T16:47:15.860Z,95.28
2019-02-22T16:49:42.810Z,94.57
2019-02-22T16:52:09.724Z,94.40
2019-02-22T16:54:36.656Z,95.27
2019-02-22T16:57:03.602Z,95.99
2019-02-22T16:59:30.551Z,96.01
2019-02-22T17:01:57.454Z,95.80
2019-02-22T17:04:24.403Z,95.33
2019-02-22T17:06:51.330Z,95.04
2019-02-22T17:09:18.329Z,95.22
2019-02-22T17:11:45.216Z,94.88
2019-02-22T17:14:12.176Z,95.29
2019-02-22T17:16:45.855Z,95.28
2019-02-22T17:19:08.223Z,95.17
2019-02-22T17:21:35.220Z,95.83
2019-02-22T17:24:02.188Z,96.09
2019-02-22T17:26:29.139Z,95.83
2019-02-22T17:28:56.097Z,96.19
2019-02-22T17:31:23.083Z,96.38
2019-02-22T17:33:49.980Z,95.78
2019-02-22T17:36:26.296Z,95.99
2019-02-22T17:38:45.807Z,95.61
2019-02-22T17:41:12.795Z,95.95
2019-02-22T17:43:39.715Z,95.80
2019-02-22T17:46:06.654Z,96.34
2019-02-22T17:48:33.591Z,96.92
2019-02-22T17:51:01.108Z,97.05
2019-02-22T17:53:28.025Z,97.41
2019-02-22T17:55:54.995Z,97.68
2019-02-22T17:58:24.712Z,97.27
2019-02-22T18:00:50.906Z,97.92
2019-02-22T18:03:17.832Z,98.23
2019-02-22T18:05:44.801Z,98.45
2019-02-22T18:08:11.709Z,97.99
2019-02-22T18:10:38.668Z,98.08
2019-02-22T18:13:05.581Z,98.70
2019-02-22T18:15:32.534Z,98.89
2019-02-22T18:17:59.454Z,99.03
2019-02-22T18:20:26.420Z,98.69
2019-02-22T18:22:53.394Z,99.30
2019-02-22T18:25:20.407Z,99.05
2019-02-22T18:27:47.314Z,98.86
2019-02-22T18:30:14.297Z,98.90
2019-02-22T18:32:41.212Z,98.97
2019-02-22T18:35:08.351Z,98.47
2019-02-22T18:37:35.266Z,98.85
2019-02-22T18:40:02.238Z,98.57
2019-02-22T18:42:29.180Z,99.08
2019-02-22T18:44:56.175Z,98.89
2019-02-22T18:47:23.119Z,98.48
2019-02-22T18:49:50.029Z,98.29
2019-02-22T18:52:17.004Z,97.69
2019-02-22T18:54:46.166Z,97.96
2019-02-22T18:57:12.801Z,97.68
2019-02-22T18:59:39.709Z,96.77
2019-02-22T19:02:06.654Z,97.17
2019-02-22T19:04:33.607Z,96.93
2019-02-22T19:07:01.014Z,97.37
2019-02-22T19:09:27.912Z,98.00
2019-02-22T19:11:54.846Z,97.51
2019-02-22T19:14:21.755Z,97.66
2019-02-22T19:16:48.691Z,97.78
2019-02-22T19:19:15.623Z,97.69
2019-02-22T19:21:42.561Z,98.20
2019-02-22T19:24:09.486Z,98.47
2019-02-22T19:26:36.460Z,98.88
2019-02-22T19:29:03.381Z,99.14
2019-02-22T19:31:30.349Z,99.51
2019-02-22T19:33:57.272Z,99.48
2019-02-22T19:36:24.241Z,99.14
2019-02-22T19:38:51.180Z,99.82
2019-02-22T19:41:18.203Z,100.00
2019-02-22T19:43:45.120Z,100.00
2019-02-22T19:46:12.443Z,100.00
2019-02-22T19:48:39.385Z,100.00
2019-02-22T19:51:06.350Z,100.00
2019-02-22T19:53:33.400Z,100.00
2019-02-22T19:56:00.386Z,100.00
2019-02-22T19:58:27.323Z,100.00
2019-02-22T20:00:54.244Z,100.00
2019-02-22T20:03:21.209Z,100.00
2019-02-22T20:05:48.150Z,100.00
2019-02-22T20:08:15.100Z,100.00
2019-02-22T20:10:42.011Z,100.00
2019-02-22T20:13:09.129Z,100.00
2019-02-22T20:15:36.326Z,100.00
2019-02-22T20:18:05.639Z,100.00
2019-02-22T20:20:33.391Z,100.00
2019-02-22T20:23:00.534Z,100.00
2019-02-22T20:25:27.654Z,100.00
2019-02-22T20:27:54.668Z,100.00
2019-02-22T20:30:21.964Z,100.00
2019-02-22T20:32:49.420Z,100.00
2019-02-22T20:35:18.039Z,100.00
2019-02-22T20:37:52.689Z,100.00
2019-02-22T20:40:14.125Z,100.00
2019-02-22T20:42:41.326Z,100.00
2019-02-22T20:45:08.508Z,100.00
2019-02-22T20:47:35.799Z,100.00
2019-02-22T20:50:03.429Z,100.00
2019-02-22T20:52:30.673Z,100.00
2019-02-22T20:54:57.670Z,100.00
2019-02-22T20:57:24.616Z,100.00
2019-02-22T20:59:51.538Z,100.00
2019-02-22T21:02:18.502Z,100.00
2019-02-22T21:04:45.414Z,100.00
2019-02-22T21:07:12.323Z,100.00
2019-02-22T21:09:39.295Z,100.00
2019-02-22T21:12:06.197Z,100.00
2019-02-22T21:14:33.159Z,100.00
2019-02-22T21:17:00.084Z,100.00
2019-02-22T21:19:27.059Z,100.00
2019-02-22T21:21:53.999Z,100.00
2019-02-22T21:24:21.115Z,100.00
2019-02-22T21:26:48.297Z,100.00
2019-02-22T21:29:15.321Z,100.00
2019-02-22T21:31:43.319Z,100.00
2019-02-22T21:34:10.297Z,100.00
2019-02-22T21:36:37.234Z,100.00
2019-02-22T21:39:05.213Z,100.00
2019-02-22T21:41:32.194Z,100.00
2019-02-22T21:43:59.168Z,100.00
2019-02-22T21:46:28.739Z,100.00
2019-02-22T21:48:55.414Z,100.00
2019-02-22T21:51:22.559Z,100.00
2019-02-22T21:53:49.644Z,100.00
2019-02-22T21:56:16.565Z,100.00
2019-02-22T21:58:43.608Z,100.00
2019-02-22T22:01:10.528Z,100.00
2019-02-22T22:03:37.503Z,100.00
2019-02-22T22:06:04.439Z,100.00
2019-02-22T22:08:31.510Z,100.00
2019-02-22T22:10:58.449Z,100.00
2019-02-22T22:13:25.400Z,100.00
2019-02-22T22:15:52.396Z,100.00
2019-02-22T22:18:19.533Z,100.00
2019-02-22T22:20:46.709Z,100.00
2019-02-22T22:23:13.621Z,100.00
2019-02-22T22:25:40.660Z,100.00
2019-02-22T22:28:07.587Z,100.00
2019-02-22T22:30:34.523Z,100.00
2019-02-22T22:33:01.432Z,100.00
2019-02-22T22:35:28.404Z,100.00
2019-02-22T22:37:55.322Z,100.00
2019-02-22T22:40:22.288Z,100.00
2019-02-22T22:42:49.204Z,100.00
2019-02-22T22:45:16.272Z,100.00
2019-02-22T22:47:43.209Z,100.00
2019-02-22T22:50:10.728Z,100.00
2019-02-22T22:52:37.666Z,100.00
2019-02-22T22:55:04.709Z,100.00
2019-02-22T22:57:31.618Z,100.00
2019-02-22T22:59:58.562Z,100.00
2019-02-22T23:02:26.100Z,100.00
2019-02-22T23:04:53.052Z,100.00
2019-02-22T23:07:19.976Z,100.00
2019-02-22T23:09:46.985Z,100.00
2019-02-22T23:12:13.893Z,100.00
2019-02-22T23:14:40.850Z,100.00
2019-02-22T23:17:07.800Z,100.00
2019-02-22T23:19:34.711Z,100.00
2019-02-22T23:22:01.673Z,100.00
2019-02-22T23:24:28.576Z,100.00
2019-02-22T23:26:55.526Z,100.00
2019-02-22T23:29:22.447Z,100.00
2019-02-22T23:31:49.393Z,100.00
2019-02-22T23:34:16.289Z,100.00
2019-02-22T23:36:43.227Z,100.00
2019-02-22T23:39:10.137Z,100.00
2019-02-22T23:41:37.114Z,100.00
2019-02-22T23:44:04.034Z,100.00
2019-02-22T23:46:30.967Z,100.00
2019-02-22T23:48:57.875Z,100.00
2019-02-22T23:51:24.835Z,100.00
2019-02-22T23:53:51.770Z,100.00
2019-02-22T23:56:18.716Z,100.00
2019-02-22T23:58:45.623Z,100.00
